Time;durP1;ratioP1;P1;durP2;ratioP2;P2;SDS_P1;SDS_P2;PMS_P1;PMS_P2;Temp;Humidity;BMP_temperature;BMP_pressure;BME280_temperature;BME280_humidity;BME280_pressure;Samples;Min_cycle;Max_cycle;Signal;HPM_P1;HPM_P2
2023/06/03 00:00:43;;;;;;;6.93;3.30;;;;;;;20.12;95.38;100568.78;5034081;28;20049;-84
2023/06/03 00:03:13;;;;;;;5.18;3.72;;;;;;;20.21;93.93;100574.22;5033752;28;20052;-85
2023/06/03 00:05:41;;;;;;;12.88;3.85;;;;;;;20.19;95.34;100573.75;5033960;28;20050;-84
2023/06/03 00:08:09;;;;;;;6.32;3.90;;;;;;;19.87;100.00;100585.38;5033496;28;20045;-82
2023/06/03 00:10:37;;;;;;;6.07;3.97;;;;;;;19.59;100.00;100565.72;5033688;28;20037;-82
2023/06/03 00:13:05;;;;;;;7.55;4.38;;;;;;;19.40;100.00;100575.38;5033486;28;20050;-81
2023/06/03 00:15:33;;;;;;;7.68;4.03;;;;;;;19.26;100.00;100578.44;5033491;28;20053;-81
2023/06/03 00:18:02;;;;;;;6.93;4.28;;;;;;;19.10;100.00;100578.25;5033369;28;20041;-81
2023/06/03 00:20:36;;;;;;;7.75;4.65;;;;;;;19.10;100.00;100569.91;5032469;28;20045;-80
2023/06/03 00:23:04;;;;;;;5.53;4.38;;;;;;;19.06;100.00;100572.56;5013590;28;20050;-82
2023/06/03 00:25:32;;;;;;;5.78;4.30;;;;;;;19.02;100.00;100579.91;5011863;28;20065;-82
2023/06/03 00:28:00;;;;;;;6.70;4.10;;;;;;;19.10;100.00;100580.22;5013514;28;20038;-82
2023/06/03 00:30:28;;;;;;;4.80;3.95;;;;;;;19.24;100.00;100575.19;5013408;28;20065;-82
2023/06/03 00:32:56;;;;;;;6.75;3.83;;;;;;;19.27;100.00;100584.81;5013514;28;20050;-82
2023/06/03 00:35:24;;;;;;;5.63;4.20;;;;;;;19.32;100.00;100598.47;5013284;28;20064;-82
2023/06/03 00:37:54;;;;;;;6.70;4.57;;;;;;;19.39;100.00;100604.28;5027619;28;20054;-82
2023/06/03 00:40:22;;;;;;;5.18;4.00;;;;;;;19.41;100.00;100609.50;5013075;28;20053;-82
2023/06/03 00:42:50;;;;;;;5.10;3.72;;;;;;;19.28;100.00;100630.81;5011295;28;20073;-82
2023/06/03 00:45:19;;;;;;;5.13;3.97;;;;;;;19.31;100.00;100642.03;5028038;28;20037;-82
2023/06/03 00:47:47;;;;;;;3.95;3.53;;;;;;;19.28;100.00;100642.72;5047331;28;20045;-83
2023/06/03 00:50:16;;;;;;;6.50;3.75;;;;;;;19.41;100.00;100640.03;5032848;28;20045;-82
2023/06/03 00:52:46;;;;;;;6.10;3.88;;;;;;;19.48;100.00;100640.28;5032776;28;20381;-83
2023/06/03 00:55:14;;;;;;;7.55;4.13;;;;;;;19.48;100.00;100634.72;5032674;28;20046;-83
2023/06/03 00:57:42;;;;;;;4.35;3.95;;;;;;;19.41;100.00;100640.03;5031432;28;20662;-83
2023/06/03 01:00:10;;;;;;;5.55;4.55;;;;;;;19.42;100.00;100641.63;5032558;28;20046;-83
2023/06/03 01:02:43;;;;;;;5.03;4.20;;;;;;;19.34;100.00;100654.41;5032566;28;20137;-83
2023/06/03 01:05:14;;;;;;;5.63;4.53;;;;;;;19.34;100.00;100658.03;5031438;28;20045;-82
2023/06/03 01:08:04;;;;;;;6.43;4.75;;;;;;;19.22;100.00;100655.19;5032581;28;20399;-82
2023/06/03 01:10:40;;;;;;;6.80;5.05;;;;;;;19.20;100.00;100676.88;5032454;28;20404;-82
2023/06/03 01:13:19;;;;;;;6.45;5.30;;;;;;;19.32;100.00;100693.59;5032357;28;20480;-82
2023/06/03 01:15:53;;;;;;;7.18;5.47;;;;;;;19.05;100.00;100690.19;5032219;28;20058;-83
2023/06/03 01:18:21;;;;;;;9.57;5.65;;;;;;;19.12;100.00;100700.78;5032302;28;20484;-83
2023/06/03 01:20:50;;;;;;;8.15;6.28;;;;;;;19.14;100.00;100697.63;5032300;28;20045;-81
2023/06/03 01:23:21;;;;;;;7.20;5.38;;;;;;;19.39;100.00;100686.69;5032113;28;20049;-83
2023/06/03 01:25:52;;;;;;;7.60;5.75;;;;;;;19.28;100.00;100680.75;5031181;28;20037;-83
2023/06/03 01:28:23;;;;;;;10.63;6.00;;;;;;;19.31;100.00;100680.88;5031936;28;20046;-83
2023/06/03 01:30:52;;;;;;;8.35;6.50;;;;;;;19.15;100.00;100672.34;5032278;28;20045;-83
2023/06/03 01:33:21;;;;;;;7.45;5.70;;;;;;;19.26;100.00;100678.31;5032219;28;20061;-82
2023/06/03 01:35:52;;;;;;;8.95;6.63;;;;;;;19.20;100.00;100691.56;5032006;28;20049;-83
2023/06/03 01:38:22;;;;;;;9.32;6.28;;;;;;;19.23;100.00;100684.53;5031003;28;20503;-83
2023/06/03 01:40:55;;;;;;;8.15;6.57;;;;;;;19.18;100.00;100687.50;5030998;28;20042;-82
2023/06/03 01:43:23;;;;;;;10.55;7.63;;;;;;;19.12;100.00;100694.41;5030851;28;20404;-82
2023/06/03 01:45:51;;;;;;;8.80;6.80;;;;;;;19.09;100.00;100697.81;5032207;28;20037;-82
2023/06/03 01:48:19;;;;;;;9.48;6.60;;;;;;;19.12;100.00;100702.72;5030654;28;20041;-82
2023/06/03 01:50:47;;;;;;;9.88;6.47;;;;;;;19.07;100.00;100710.06;5032125;28;20046;-82
2023/06/03 01:53:17;;;;;;;8.75;6.40;;;;;;;19.16;100.00;100718.34;5030730;28;20053;-82
2023/06/03 01:55:46;;;;;;;10.52;8.10;;;;;;;19.22;100.00;100715.38;5047226;28;20037;-82
2023/06/03 01:58:16;;;;;;;8.45;6.65;;;;;;;19.25;100.00;100714.72;5032763;28;20041;-82
2023/06/03 02:00:44;;;;;;;10.10;6.70;;;;;;;19.33;100.00;100711.91;5034867;28;20395;-82
2023/06/03 02:03:12;;;;;;;10.18;7.28;;;;;;;19.30;100.00;100706.19;5035948;28;20480;-82
2023/06/03 02:05:42;;;;;;;9.65;6.85;;;;;;;19.34;100.00;100701.59;5035968;28;20056;-82
2023/06/03 02:08:10;;;;;;;10.00;6.75;;;;;;;19.18;100.00;100677.22;5051071;28;20392;-83
2023/06/03 02:10:38;;;;;;;9.38;6.95;;;;;;;19.26;100.00;100677.50;5034812;28;20049;-83
2023/06/03 02:13:06;;;;;;;7.38;6.07;;;;;;;19.24;100.00;100666.75;5036036;28;20049;-82
2023/06/03 02:15:34;;;;;;;8.80;6.20;;;;;;;19.12;100.00;100673.03;5035944;28;20053;-83
2023/06/03 02:18:03;;;;;;;10.90;6.97;;;;;;;18.96;100.00;100667.19;5035810;28;20056;-82
2023/06/03 02:20:31;;;;;;;10.75;7.43;;;;;;;18.83;100.00;100654.41;5035710;28;20046;-83
2023/06/03 02:23:03;;;;;;;6.60;5.40;;;;;;;18.79;100.00;100649.53;5034456;28;20050;-83
2023/06/03 02:25:32;;;;;;;6.13;5.25;;;;;;;18.78;100.00;100641.56;5034659;28;20052;-84
2023/06/03 02:28:02;;;;;;;6.03;4.90;;;;;;;18.76;100.00;100646.59;5034334;28;20396;-82
2023/06/03 02:30:30;;;;;;;7.50;4.25;;;;;;;18.74;100.00;100648.91;5034259;28;20050;-82
2023/06/03 02:32:58;;;;;;;6.07;4.55;;;;;;;18.78;100.00;100655.41;5035574;28;20056;-81
2023/06/03 02:35:26;;;;;;;5.90;4.10;;;;;;;18.72;100.00;100667.84;5035569;28;20037;-82
2023/06/03 02:37:55;;;;;;;4.75;4.30;;;;;;;18.72;100.00;100674.19;5035429;28;20042;-82
2023/06/03 02:40:23;;;;;;;3.92;3.53;;;;;;;18.71;100.00;100669.00;5050662;28;20048;-83
2023/06/03 02:42:51;;;;;;;9.60;4.13;;;;;;;18.63;100.00;100671.44;5035386;28;20049;-83
2023/06/03 02:45:19;;;;;;;5.13;4.05;;;;;;;18.46;100.00;100666.78;5034248;28;20041;-81
2023/06/03 02:47:47;;;;;;;5.28;4.03;;;;;;;18.57;100.00;100664.47;5050568;28;20053;-83
2023/06/03 02:50:16;;;;;;;4.10;3.70;;;;;;;18.47;100.00;100648.22;5017904;28;20037;-82
2023/06/03 02:52:44;;;;;;;4.20;3.63;;;;;;;18.57;100.00;100661.69;5035251;28;20045;-82
2023/06/03 02:55:13;;;;;;;5.22;4.10;;;;;;;18.49;100.00;100671.69;5035215;28;20045;-82
2023/06/03 02:57:41;;;;;;;7.13;3.95;;;;;;;18.49;100.00;100681.94;5033921;28;20064;-82
2023/06/03 03:00:11;;;;;;;5.78;3.72;;;;;;;18.29;100.00;100697.31;5033939;28;20053;-83
2023/06/03 03:02:39;;;;;;;4.75;4.25;;;;;;;17.98;100.00;100697.19;5034907;28;20041;-83
2023/06/03 03:05:08;;;;;;;6.97;4.22;;;;;;;18.10;100.00;100696.53;5016620;28;20532;-83
2023/06/03 03:07:36;;;;;;;6.45;4.40;;;;;;;18.31;100.00;100684.78;5034698;28;20057;-84
2023/06/03 03:10:05;;;;;;;5.38;4.25;;;;;;;18.48;100.00;100664.50;5032522;28;20484;-85
2023/06/03 03:12:33;;;;;;;7.50;3.90;;;;;;;18.47;100.00;100660.09;5033640;28;20484;-85
2023/06/03 03:15:02;;;;;;;6.10;4.68;;;;;;;18.46;100.00;100668.75;5050057;28;20065;-85
2023/06/03 03:17:31;;;;;;;5.57;3.75;;;;;;;18.39;100.00;100667.31;5032773;28;20049;-83
2023/06/03 03:20:01;;;;;;;5.65;3.97;;;;;;;18.49;100.00;100666.16;5033540;28;20049;-83
2023/06/03 03:22:30;;;;;;;5.03;3.75;;;;;;;18.43;100.00;100672.19;5034692;28;20404;-83
2023/06/03 03:24:59;;;;;;;5.15;3.95;;;;;;;18.17;100.00;100678.63;5033381;28;20051;-83
2023/06/03 03:27:28;;;;;;;5.70;4.25;;;;;;;18.13;100.00;100676.50;5032969;28;20050;-84
2023/06/03 03:30:00;;;;;;;5.20;3.67;;;;;;;18.37;100.00;100660.47;5033118;28;20053;-83
2023/06/03 03:32:29;;;;;;;6.07;4.30;;;;;;;18.52;100.00;100665.47;5049005;28;20054;-83
2023/06/03 03:35:15;;;;;;;5.72;4.07;;;;;;;18.68;100.00;100662.16;5049853;28;20045;-83
2023/06/03 03:37:46;;;;;;;5.03;4.53;;;;;;;18.78;100.00;100660.97;5049723;28;20050;-83
2023/06/03 03:40:22;;;;;;;7.45;4.43;;;;;;;18.69;100.00;100655.47;5033296;28;20052;-83
2023/06/03 03:42:55;;;;;;;5.68;4.55;;;;;;;18.76;100.00;100654.91;5033697;28;20037;-84
2023/06/03 03:45:30;;;;;;;5.00;4.50;;;;;;;18.76;100.00;100658.50;5033212;28;20034;-84
2023/06/03 03:48:03;;;;;;;6.25;3.72;;;;;;;18.63;100.00;100673.41;5032927;28;20049;-83
2023/06/03 03:50:34;;;;;;;5.50;4.03;;;;;;;18.70;100.00;100672.88;5015880;28;20492;-83
2023/06/03 03:53:05;;;;;;;3.95;3.53;;;;;;;18.49;100.00;100687.50;5032641;28;20053;-83
2023/06/03 03:55:39;;;;;;;4.53;3.60;;;;;;;18.43;100.00;100697.13;5034051;28;20042;-83
2023/06/03 03:58:16;;;;;;;7.60;3.88;;;;;;;18.31;100.00;100700.56;5032764;28;20049;-83
2023/06/03 04:00:47;;;;;;;5.00;3.70;;;;;;;18.13;100.00;100701.44;5032905;28;20056;-83
2023/06/03 04:03:17;;;;;;;4.70;3.58;;;;;;;18.24;100.00;100706.63;5032616;28;20045;-83
2023/06/03 04:05:49;;;;;;;4.35;3.95;;;;;;;18.36;100.00;100714.25;5032700;28;20049;-83
2023/06/03 04:08:40;;;;;;;5.97;4.57;;;;;;;18.40;100.00;100709.69;5033698;28;20041;-83
2023/06/03 04:11:15;;;;;;;5.40;4.65;;;;;;;18.45;100.00;100715.06;5033780;28;20049;-83
2023/06/03 04:13:43;;;;;;;6.05;5.05;;;;;;;18.48;100.00;100719.91;5033748;28;20050;-83
2023/06/03 04:16:24;;;;;;;6.88;4.60;;;;;;;18.50;100.00;100734.28;5032362;28;20056;-83
2023/06/03 04:18:52;;;;;;;6.05;5.07;;;;;;;18.39;100.00;100730.22;5032513;28;20065;-83
2023/06/03 04:21:20;;;;;;;5.10;4.57;;;;;;;18.26;100.00;100741.16;5032145;28;20052;-85
2023/06/03 04:23:49;;;;;;;6.35;4.70;;;;;;;18.25;100.00;100752.56;5032210;28;20491;-84
2023/06/03 04:26:19;;;;;;;6.60;4.88;;;;;;;18.21;100.00;100757.13;5033254;28;20046;-84
2023/06/03 04:28:47;;;;;;;6.43;5.10;;;;;;;18.07;100.00;100735.16;5031898;28;20404;-83
2023/06/03 04:31:16;;;;;;;7.50;4.80;;;;;;;18.27;100.00;100744.75;5030760;28;20045;-83
2023/06/03 04:33:44;;;;;;;10.95;5.50;;;;;;;18.13;100.00;100742.97;5031748;28;20029;-83
2023/06/03 04:36:12;;;;;;;6.60;4.60;;;;;;;18.09;100.00;100738.44;5031869;28;20045;-83
2023/06/03 04:38:41;;;;;;;5.40;4.57;;;;;;;17.91;100.00;100738.41;5032681;28;20049;-85
2023/06/03 04:41:14;;;;;;;5.50;4.20;;;;;;;17.88;100.00;100733.50;5048334;28;20041;-83
2023/06/03 04:43:45;;;;;;;6.95;4.70;;;;;;;17.89;100.00;100734.34;5031845;28;20049;-83
2023/06/03 04:46:16;;;;;;;6.22;4.70;;;;;;;17.95;100.00;100735.78;5031766;28;20374;-83
2023/06/03 04:48:48;;;;;;;5.93;4.70;;;;;;;18.18;100.00;100736.44;5031326;28;20391;-83
2023/06/03 04:51:16;;;;;;;6.35;4.35;;;;;;;18.11;100.00;100736.13;5031762;28;20042;-83
2023/06/03 04:53:45;;;;;;;5.95;4.68;;;;;;;18.28;100.00;100735.28;5031729;28;20049;-83
2023/06/03 04:56:13;;;;;;;6.30;4.55;;;;;;;18.19;100.00;100731.72;5030905;28;20045;-83
2023/06/03 04:58:42;;;;;;;7.18;4.88;;;;;;;18.29;100.00;100725.03;5044812;28;20041;-83
2023/06/03 05:01:16;;;;;;;6.63;4.53;;;;;;;18.19;100.00;100726.19;5012098;28;20068;-84
2023/06/03 05:03:45;;;;;;;6.22;4.30;;;;;;;18.05;100.00;100724.41;5012057;28;20297;-81
2023/06/03 05:06:13;;;;;;;5.53;4.38;;;;;;;17.94;100.00;100723.91;5028743;28;20484;-82
2023/06/03 05:08:43;;;;;;;6.43;4.00;;;;;;;17.63;100.00;100721.28;5030761;28;20041;-81
2023/06/03 05:11:11;;;;;;;4.88;4.40;;;;;;;17.69;100.00;100731.09;5031318;28;20041;-83
2023/06/03 05:13:39;;;;;;;6.05;4.20;;;;;;;17.75;100.00;100734.50;5032565;28;20045;-82
2023/06/03 05:16:07;;;;;;;6.25;3.90;;;;;;;17.89;100.00;100729.59;5028550;28;20049;-83
2023/06/03 05:18:41;;;;;;;9.65;5.00;;;;;;;17.77;100.00;100743.28;5030277;28;20399;-82
2023/06/03 05:21:09;;;;;;;5.28;3.88;;;;;;;17.82;100.00;100748.66;5029979;28;20052;-82
2023/06/03 05:23:38;;;;;;;7.20;4.35;;;;;;;17.82;100.00;100754.19;5030734;28;20056;-82
2023/06/03 05:26:06;;;;;;;6.68;4.22;;;;;;;17.86;100.00;100755.19;5031063;28;20037;-82
2023/06/03 05:28:34;;;;;;;6.93;4.30;;;;;;;17.71;100.00;100756.47;5031785;28;20064;-82
2023/06/03 05:31:04;;;;;;;8.20;4.55;;;;;;;17.64;100.00;100754.19;5026842;28;20041;-83
2023/06/03 05:33:35;;;;;;;6.45;4.40;;;;;;;17.52;100.00;100756.75;5029776;28;20404;-83
2023/06/03 05:36:10;;;;;;;7.43;4.40;;;;;;;17.82;100.00;100759.72;5031177;28;20037;-84
2023/06/03 05:38:38;;;;;;;6.32;4.70;;;;;;;18.08;100.00;100756.97;5031037;28;20038;-83
2023/06/03 05:41:09;;;;;;;5.90;3.92;;;;;;;17.97;100.00;100753.72;5031081;28;20041;-83
2023/06/03 05:43:37;;;;;;;5.30;4.05;;;;;;;17.81;100.00;100760.88;5031270;28;20042;-83
2023/06/03 05:46:05;;;;;;;4.57;4.05;;;;;;;17.91;100.00;100752.25;5030855;28;20061;-83
2023/06/03 05:48:34;;;;;;;6.55;4.43;;;;;;;18.07;100.00;100747.06;5040502;28;20042;-82
2023/06/03 05:51:06;;;;;;;5.18;4.20;;;;;;;18.12;100.00;100757.13;5011453;28;20046;-83
2023/06/03 05:53:37;;;;;;;5.25;3.70;;;;;;;18.22;100.00;100761.53;5011186;28;20049;-82
2023/06/03 05:56:06;;;;;;;5.68;3.50;;;;;;;18.07;100.00;100751.75;5020398;28;20407;-82
2023/06/03 05:58:34;;;;;;;5.53;3.92;;;;;;;18.15;100.00;100748.19;5031988;28;20375;-82
2023/06/03 06:01:02;;;;;;;4.82;4.03;;;;;;;18.17;100.00;100762.50;5035180;28;20038;-82
2023/06/03 06:03:30;;;;;;;6.82;4.28;;;;;;;18.12;100.00;100752.44;5010761;28;20053;-82
2023/06/03 06:14:29;;;;;;;6.90;4.22;;;;;;;18.10;100.00;100763.00;5181383;22;20419;-82
2023/06/03 06:16:57;;;;;;;5.30;3.83;;;;;;;18.16;100.00;100754.53;5007980;28;20052;-82
2023/06/03 06:19:25;;;;;;;4.05;3.67;;;;;;;17.89;100.00;100753.72;5010438;28;20046;-82
2023/06/03 06:21:55;;;;;;;4.25;3.63;;;;;;;17.96;100.00;100760.38;5000850;28;20496;-82
2023/06/03 06:24:24;;;;;;;5.55;3.80;;;;;;;17.89;100.00;100750.94;5021207;28;20057;-82
2023/06/03 06:26:52;;;;;;;4.78;3.63;;;;;;;17.97;100.00;100753.72;5029890;28;20049;-82
2023/06/03 06:29:20;;;;;;;4.65;3.33;;;;;;;18.21;100.00;100757.97;5012564;28;20694;-82
2023/06/03 06:31:49;;;;;;;5.90;3.80;;;;;;;18.29;100.00;100749.94;5011965;28;20041;-82
2023/06/03 06:34:17;;;;;;;4.10;3.70;;;;;;;18.48;100.00;100750.41;4992246;28;20052;-83
2023/06/03 06:36:52;;;;;;;6.03;4.03;;;;;;;18.58;100.00;100753.97;4971864;28;20385;-83
2023/06/03 06:39:44;;;;;;;4.40;3.13;;;;;;;18.47;100.00;100762.63;4979551;28;20050;-81
2023/06/03 06:42:29;;;;;;;4.47;3.33;;;;;;;18.49;100.00;100768.66;4979637;28;20050;-80
2023/06/03 06:45:13;;;;;;;4.95;3.20;;;;;;;18.34;100.00;100766.41;4959242;28;20057;-82
2023/06/03 06:47:42;;;;;;;5.45;3.33;;;;;;;18.36;100.00;100769.66;4998245;28;20485;-82
2023/06/03 06:50:55;;;;;;;4.88;3.60;;;;;;;18.48;100.00;100769.00;5001449;28;20054;-80
2023/06/03 06:53:28;;;;;;;5.50;3.45;;;;;;;18.56;100.00;100767.34;5010990;28;20041;-80
2023/06/03 06:56:06;;;;;;;6.53;3.47;;;;;;;18.82;100.00;100780.31;5000814;28;20049;-80
2023/06/03 06:59:03;;;;;;;4.43;3.80;;;;;;;18.79;100.00;100765.97;5011832;28;20046;-80
2023/06/03 07:01:34;;;;;;;6.70;4.03;;;;;;;18.93;100.00;100773.25;5031935;28;20068;-81
2023/06/03 07:04:03;;;;;;;6.90;3.80;;;;;;;18.92;100.00;100755.78;5026559;28;20053;-80
2023/06/03 07:06:33;;;;;;;5.80;3.75;;;;;;;18.82;100.00;100758.94;4973709;28;20054;-82
2023/06/03 07:09:06;;;;;;;5.35;3.40;;;;;;;18.86;100.00;100761.88;5002734;28;20050;-82
2023/06/03 07:11:44;;;;;;;4.43;3.33;;;;;;;19.01;100.00;100769.63;5041439;28;20049;-79
2023/06/03 07:14:20;;;;;;;4.07;3.60;;;;;;;19.01;100.00;100764.06;4997012;28;20452;-82
2023/06/03 07:16:51;;;;;;;6.50;3.88;;;;;;;19.18;100.00;100770.72;5033817;28;20056;-81
2023/06/03 07:19:20;;;;;;;4.95;3.25;;;;;;;19.19;100.00;100769.56;5021666;28;20065;-80
2023/06/03 07:21:51;;;;;;;5.55;4.30;;;;;;;19.28;100.00;100764.81;5029346;28;20399;-80
2023/06/03 07:24:20;;;;;;;5.18;3.47;;;;;;;19.29;100.00;100771.16;5021662;28;20049;-80
2023/06/03 07:26:50;;;;;;;4.93;3.40;;;;;;;19.41;100.00;100768.47;5028801;28;20034;-81
2023/06/03 07:29:19;;;;;;;5.10;2.97;;;;;;;19.56;100.00;100769.84;5029334;28;20057;-81
2023/06/03 07:31:48;;;;;;;4.38;2.97;;;;;;;19.83;100.00;100773.25;5027416;28;20049;-80
2023/06/03 07:34:24;;;;;;;4.30;3.28;;;;;;;20.05;100.00;100762.16;5001918;28;20057;-80
2023/06/03 07:36:59;;;;;;;3.40;3.10;;;;;;;19.89;100.00;100762.72;5030734;28;20045;-83
2023/06/03 07:39:32;;;;;;;4.35;2.95;;;;;;;19.96;100.00;100763.06;5025150;28;20056;-81
2023/06/03 07:42:13;;;;;;;3.20;2.85;;;;;;;20.06;100.00;100763.78;5000107;28;20037;-81
2023/06/03 07:44:48;;;;;;;5.00;3.35;;;;;;;20.04;100.00;100769.66;5020474;28;20049;-81
2023/06/03 07:47:17;;;;;;;3.53;3.15;;;;;;;20.08;100.00;100772.59;5018726;28;20053;-81
2023/06/03 07:49:47;;;;;;;4.95;3.40;;;;;;;20.14;100.00;100777.59;5027340;28;20049;-81
2023/06/03 07:52:19;;;;;;;3.55;3.13;;;;;;;20.38;100.00;100789.16;5018795;28;20045;-82
2023/06/03 07:54:48;;;;;;;3.35;2.83;;;;;;;20.36;100.00;100781.16;5019034;28;20494;-81
2023/06/03 07:57:16;;;;;;;4.45;2.92;;;;;;;20.70;100.00;100785.84;5019296;28;20038;-82
2023/06/03 07:59:55;;;;;;;3.20;2.70;;;;;;;20.71;100.00;100787.50;5022052;28;20408;-82
2023/06/03 08:02:26;;;;;;;3.17;2.63;;;;;;;21.19;100.00;100794.31;5024027;28;20057;-82
2023/06/03 08:05:11;;;;;;;3.13;2.80;;;;;;;21.46;100.00;100788.38;5020019;28;20049;-82
2023/06/03 08:07:42;;;;;;;2.63;2.42;;;;;;;21.52;100.00;100786.97;5023755;28;20056;-81
2023/06/03 08:10:21;;;;;;;2.50;2.08;;;;;;;21.83;100.00;100799.47;5044275;28;20049;-81
2023/06/03 08:12:49;;;;;;;4.40;2.20;;;;;;;21.92;98.57;100804.91;5025025;28;20522;-80
2023/06/03 08:15:26;;;;;;;2.58;2.05;;;;;;;22.05;97.16;100808.47;5054298;28;20049;-80
2023/06/03 08:23:03;;;;;;;2.83;2.25;;;;;;;22.31;98.81;100809.16;4950878;28;20556;-83
2023/06/03 08:25:31;;;;;;;6.15;2.85;;;;;;;22.20;100.00;100800.50;4998112;28;20057;-84
2023/06/03 08:27:59;;;;;;;2.67;2.22;;;;;;;22.21;99.61;100807.69;5007751;28;20061;-84
2023/06/03 08:30:27;;;;;;;3.92;2.92;;;;;;;22.21;99.41;100810.50;5012887;28;20041;-84
2023/06/03 08:32:55;;;;;;;4.25;2.63;;;;;;;22.35;100.00;100812.88;5013206;23;20053;-84
2023/06/03 08:35:23;;;;;;;2.70;2.38;;;;;;;22.38;99.20;100812.97;5033395;28;20395;-84
2023/06/03 08:37:52;;;;;;;5.18;2.17;;;;;;;22.47;97.73;100817.56;5032240;28;20045;-84
2023/06/03 08:40:23;;;;;;;4.88;2.65;;;;;;;22.55;98.43;100814.66;5033469;28;20523;-84
2023/06/03 08:42:58;;;;;;;3.15;2.42;;;;;;;22.40;98.26;100809.84;5033238;28;20045;-84
2023/06/03 08:45:33;;;;;;;4.90;2.45;;;;;;;22.39;98.81;100822.16;5033134;28;20049;-84
2023/06/03 08:48:12;;;;;;;2.80;2.50;;;;;;;22.39;98.66;100822.94;5033294;28;20060;-84
2023/06/03 08:50:43;;;;;;;3.42;2.63;;;;;;;22.48;98.36;100822.78;5033204;28;20049;-84
2023/06/03 08:53:12;;;;;;;3.20;2.40;;;;;;;22.62;97.66;100829.97;5032782;28;20049;-84
2023/06/03 08:55:40;;;;;;;2.65;2.45;;;;;;;22.74;95.51;100831.88;5033069;28;20046;-84
2023/06/03 08:58:23;;;;;;;3.28;2.25;;;;;;;22.75;91.08;100828.75;5015320;28;20432;-84
2023/06/03 09:01:01;;;;;;;3.00;2.70;;;;;;;22.86;91.09;100833.81;5032968;28;20488;-85
2023/06/03 09:03:29;;;;;;;3.67;2.53;;;;;;;22.79;96.25;100820.47;5032750;28;20049;-85
2023/06/03 09:05:59;;;;;;;2.67;2.33;;;;;;;22.80;94.72;100830.44;5032871;28;20053;-85
2023/06/03 09:08:27;;;;;;;3.78;2.72;;;;;;;22.78;95.11;100825.22;5032012;28;20037;-85
2023/06/03 09:10:58;;;;;;;2.53;2.30;;;;;;;22.92;94.77;100826.78;5032945;28;20408;-84
2023/06/03 09:13:28;;;;;;;3.22;2.75;;;;;;;22.91;97.21;100823.16;5032697;28;20053;-84
2023/06/03 09:15:57;;;;;;;4.35;2.88;;;;;;;22.99;94.81;100826.97;5032853;28;20045;-85
2023/06/03 09:18:25;;;;;;;5.40;3.10;;;;;;;23.17;95.04;100838.56;5032954;28;20060;-85
2023/06/03 09:20:53;;;;;;;4.38;2.97;;;;;;;23.28;94.35;100844.44;5032815;28;20053;-85
2023/06/03 09:23:21;;;;;;;3.40;3.10;;;;;;;23.35;93.17;100852.19;5032529;28;20053;-85
2023/06/03 09:25:49;;;;;;;4.72;3.38;;;;;;;23.40;94.78;100846.31;5014796;28;20052;-85
2023/06/03 09:28:19;;;;;;;5.93;3.53;;;;;;;23.31;94.70;100840.94;5032475;28;20045;-85
2023/06/03 09:30:47;;;;;;;3.85;3.30;;;;;;;23.33;96.30;100841.41;5032622;28;20053;-85
2023/06/03 09:33:16;;;;;;;3.35;2.80;;;;;;;23.32;95.75;100834.16;5032056;28;20072;-85
2023/06/03 09:36:07;;;;;;;4.97;2.80;;;;;;;23.56;91.28;100853.88;5032588;28;20057;-84
2023/06/03 09:38:50;;;;;;;2.75;2.55;;;;;;;23.64;88.96;100854.88;5032573;28;20057;-85
2023/06/03 09:41:20;;;;;;;3.92;2.63;;;;;;;23.60;86.34;100849.19;5032237;28;20499;-84
2023/06/03 09:43:55;;;;;;;3.17;2.75;;;;;;;23.81;89.40;100848.06;5032470;28;20369;-85
2023/06/03 09:46:24;;;;;;;4.25;3.30;;;;;;;23.79;90.63;100847.63;5032230;28;20060;-84
2023/06/03 09:48:52;;;;;;;3.42;2.70;;;;;;;23.77;85.92;100856.38;5027402;28;20048;-85
2023/06/03 09:51:20;;;;;;;4.82;2.67;;;;;;;23.80;88.46;100860.41;5031273;28;20526;-85
2023/06/03 09:53:48;;;;;;;3.00;2.65;;;;;;;23.88;85.03;100843.44;5013275;28;20046;-85
2023/06/03 09:57:16;;;;;;;3.63;2.63;;;;;;;24.10;83.12;100849.50;5030451;28;20496;-84
2023/06/03 10:00:55;;;;;;;3.40;2.57;;;;;;;23.98;84.38;100847.66;5029451;28;20068;-84
2023/06/03 10:03:25;;;;;;;4.53;2.75;;;;;;;24.14;85.43;100844.81;5028126;28;20288;-83
2023/06/03 10:05:53;;;;;;;5.03;3.17;;;;;;;24.23;84.39;100849.38;5030726;28;20053;-82
2023/06/03 10:08:31;;;;;;;3.85;2.50;;;;;;;24.24;84.29;100839.81;5031487;28;20037;-83
2023/06/03 10:11:00;;;;;;;3.33;3.03;;;;;;;24.50;83.05;100850.34;5031180;28;20118;-82
2023/06/03 10:13:28;;;;;;;4.05;3.08;;;;;;;24.53;84.65;100845.97;5027774;28;20049;-82
2023/06/03 10:15:58;;;;;;;3.38;2.47;;;;;;;24.55;79.21;100849.22;5009039;28;20045;-84
2023/06/03 10:18:40;;;;;;;4.03;2.55;;;;;;;24.60;79.80;100851.72;5014223;28;20064;-84
2023/06/03 10:21:10;;;;;;;3.22;2.90;;;;;;;24.78;83.74;100843.66;5030109;28;20041;-82
2023/06/03 10:23:41;;;;;;;2.55;2.35;;;;;;;24.72;76.64;100844.34;5031141;28;20053;-82
2023/06/03 10:26:09;;;;;;;2.92;2.30;;;;;;;24.85;81.74;100853.38;5034638;28;20046;-81
2023/06/03 10:28:38;;;;;;;2.80;2.50;;;;;;;24.92;78.34;100847.94;5033688;28;20049;-82
2023/06/03 10:31:10;;;;;;;2.50;2.20;;;;;;;24.93;81.14;100844.75;5018669;28;20550;-81
2023/06/03 10:33:40;;;;;;;3.30;2.60;;;;;;;25.04;78.90;100844.94;5025078;28;20050;-81
2023/06/03 10:36:09;;;;;;;2.35;2.10;;;;;;;25.31;76.17;100844.97;5036943;28;20050;-81
2023/06/03 10:38:42;;;;;;;3.13;2.30;;;;;;;25.29;70.80;100849.34;5034855;28;20057;-81
2023/06/03 10:41:12;;;;;;;2.55;2.22;;;;;;;25.21;71.95;100849.22;5034445;28;20399;-81
2023/06/03 10:43:43;;;;;;;2.53;2.20;;;;;;;25.18;80.99;100847.16;5034495;28;20068;-81
2023/06/03 10:46:12;;;;;;;2.50;2.30;;;;;;;25.23;73.64;100841.25;5034709;28;20049;-81
2023/06/03 10:48:43;;;;;;;4.15;2.53;;;;;;;25.25;73.24;100840.06;5042595;28;20044;-81
2023/06/03 10:51:29;;;;;;;3.15;2.50;;;;;;;25.47;74.02;100844.81;5036647;28;20052;-81
2023/06/03 10:54:03;;;;;;;2.38;2.17;;;;;;;25.58;72.70;100835.81;5030697;28;20046;-81
2023/06/03 10:56:56;;;;;;;2.58;2.17;;;;;;;25.72;75.15;100836.00;5024190;28;20045;-83
2023/06/03 10:59:28;;;;;;;2.03;1.90;;;;;;;25.79;70.75;100831.72;5054216;28;20060;-85
2023/06/03 11:02:03;;;;;;;3.85;1.88;;;;;;;25.53;69.76;100822.94;5031528;28;20579;-84
2023/06/03 11:04:36;;;;;;;2.50;2.28;;;;;;;25.37;69.20;100828.69;5032488;28;20041;-87
2023/06/03 11:07:07;;;;;;;2.38;2.03;;;;;;;25.21;69.15;100823.19;5033726;28;20056;-83
2023/06/03 11:09:37;;;;;;;2.30;2.08;;;;;;;25.04;67.98;100827.34;5034616;28;20056;-86
2023/06/03 11:12:09;;;;;;;2.20;2.00;;;;;;;25.00;65.58;100824.47;5034719;28;20053;-86
2023/06/03 11:14:42;;;;;;;1.75;1.65;;;;;;;25.14;68.04;100826.72;5033917;28;20045;-86
2023/06/03 11:17:12;;;;;;;4.53;1.58;;;;;;;25.40;65.34;100827.13;5033730;28;20400;-84
2023/06/03 11:19:55;;;;;;;2.65;1.60;;;;;;;25.67;60.89;100819.53;5033796;28;20049;-84
2023/06/03 11:22:29;;;;;;;2.03;1.85;;;;;;;25.98;59.70;100825.13;5033479;28;20503;-84
2023/06/03 11:24:59;;;;;;;2.10;1.55;;;;;;;26.02;59.42;100820.41;5032661;28;20037;-87
2023/06/03 11:27:29;;;;;;;5.40;2.08;;;;;;;26.09;66.60;100812.06;5036519;28;20052;-88
2023/06/03 11:29:59;;;;;;;2.13;1.60;;;;;;;26.17;60.37;100807.34;5033028;28;20042;-88
2023/06/03 11:32:31;;;;;;;1.63;1.50;;;;;;;26.36;62.96;100795.19;5019954;28;20407;-88
2023/06/03 11:34:59;;;;;;;2.13;1.88;;;;;;;26.21;57.08;100805.41;5047615;28;20074;-89
2023/06/03 11:37:48;;;;;;;2.60;1.40;;;;;;;26.47;56.65;100800.09;5046951;28;20052;-88
2023/06/03 11:40:18;;;;;;;1.95;1.50;;;;;;;26.65;59.37;100789.06;5033068;28;20507;-88
2023/06/03 11:42:47;;;;;;;2.28;2.08;;;;;;;26.48;55.50;100796.91;5033828;28;20048;-88
2023/06/03 11:45:18;;;;;;;1.77;1.65;;;;;;;26.51;51.94;100793.34;5052991;28;20048;-88
2023/06/03 11:47:52;;;;;;;2.25;2.05;;;;;;;26.44;53.67;100782.03;5043280;28;20057;-88
2023/06/03 11:50:31;;;;;;;1.90;1.63;;;;;;;26.67;53.59;100781.88;5013760;28;20046;-90
2023/06/03 11:53:00;;;;;;;2.75;1.42;;;;;;;26.69;53.88;100781.47;4998761;28;20049;-89